首页
METAR-TAF:

METAR-TAF

机场 :

維也納新城, 奥地利

纬度: 47-50-36N, 经度: 016-15-29E, 海拔: 272米

当前天气观测

该预报发布于1小时和1分钟前的13:00 UTC
风速4节,风向
温度
气压
能見度: 4000
小雨, 轻雾

METAR: LOAN 121300Z 36004KT 4000 -RA BR SCT005ST BKN012SC

时间: 15:01 (14:01 UTC)

预报

该预报发布于1小时和54分钟前的12:07 UTC
预报有效从12日的 12点(UTC)到 12日的 21点(UTC)
风速6节,风向东北
能見度: 6000
散云层高于500英尺
阴天层高于1500英尺
小雨, 轻雾
短暂存在
从 12日的 12点(UTC)到 12日的 21点(UTC)
能見度: 4000
散云层高于500英尺
阴天层高于1200英尺

TAF: LOAN 121207Z 1212/1221 04006KT 6000 -RA BR SCT005 OVC015 TEMPO 1212/1221 4000 RA SCT005 OVC012

超过4000个机场的气象观测和天气预报(METAR&TAF报告)。

可查询的气象台以黄色和红色小点在地图上表示。

将鼠标移到小点上方,可查看气象台名称。

然后点击查看天气观测和预报。

如需切换地图:点击带黑十字的绿色按钮放大地图;点击带横线的绿色按钮缩小地图;或者点击绿色箭头查看邻近地区的地图。


METAR-TAF: